createdAt,value
2023-05-19T00:01:13.692Z,4.60
2023-05-19T00:03:52.744Z,4.60
2023-05-19T00:06:26.049Z,4.65
2023-05-19T00:08:58.855Z,5.00
2023-05-19T00:11:27.859Z,4.30
2023-05-19T00:13:56.942Z,4.03
2023-05-19T00:16:26.708Z,3.60
2023-05-19T00:18:55.046Z,3.42
2023-05-19T00:21:24.572Z,3.20
2023-05-19T00:23:52.739Z,4.47
2023-05-19T00:26:21.979Z,3.63
2023-05-19T00:28:50.807Z,4.05
2023-05-19T00:31:18.922Z,4.05
2023-05-19T00:33:47.203Z,4.32
2023-05-19T00:36:15.254Z,3.80
2023-05-19T00:38:44.727Z,4.32
2023-05-19T00:41:13.047Z,3.92
2023-05-19T00:43:41.295Z,4.28
2023-05-19T00:46:11.125Z,4.70
2023-05-19T00:48:39.301Z,4.53
2023-05-19T00:51:07.707Z,5.20
2023-05-19T00:53:36.743Z,4.68
2023-05-19T00:56:06.482Z,4.78
2023-05-19T00:58:35.010Z,4.15
2023-05-19T01:01:04.696Z,3.70
2023-05-19T01:03:35.162Z,4.35
2023-05-19T01:06:05.304Z,4.30
2023-05-19T01:08:34.009Z,4.35
2023-05-19T01:11:03.389Z,3.90
2023-05-19T01:13:33.297Z,3.85
2023-05-19T01:16:06.976Z,3.88
2023-05-19T01:18:48.633Z,3.90
2023-05-19T01:21:49.995Z,4.13
2023-05-19T01:24:46.969Z,4.13
2023-05-19T01:27:43.333Z,3.72
2023-05-19T01:30:35.322Z,3.90
2023-05-19T01:33:07.965Z,3.58
2023-05-19T01:35:37.966Z,3.30
2023-05-19T01:38:08.883Z,3.30
2023-05-19T01:40:38.834Z,3.40
2023-05-19T01:43:10.666Z,4.15
2023-05-19T01:45:41.405Z,4.20
2023-05-19T01:48:11.113Z,4.18
2023-05-19T01:50:39.504Z,4.85
2023-05-19T01:53:07.734Z,4.30
2023-05-19T01:55:37.169Z,4.25
2023-05-19T01:58:16.851Z,4.72
2023-05-19T02:00:54.534Z,4.43
2023-05-19T02:03:39.693Z,4.50
2023-05-19T02:06:20.518Z,4.35
2023-05-19T02:08:55.725Z,4.30
2023-05-19T02:11:31.670Z,4.15
2023-05-19T02:14:04.097Z,4.05
2023-05-19T02:16:35.826Z,4.10
2023-05-19T02:19:04.213Z,4.10
2023-05-19T02:21:32.313Z,4.40
2023-05-19T02:24:00.438Z,4.13
2023-05-19T02:26:28.513Z,4.50
2023-05-19T02:28:56.520Z,4.60
2023-05-19T02:31:24.696Z,4.65
2023-05-19T02:33:54.245Z,4.68
2023-05-19T02:36:22.462Z,4.30
2023-05-19T02:38:51.343Z,4.68
2023-05-19T02:41:19.438Z,5.05
2023-05-19T02:43:47.540Z,4.50
2023-05-19T02:46:15.671Z,4.15
2023-05-19T02:48:43.745Z,4.50
2023-05-19T02:51:13.191Z,4.88
2023-05-19T02:53:41.206Z,4.20
2023-05-19T02:56:09.280Z,4.72
2023-05-19T02:58:37.378Z,4.95
2023-05-19T03:01:05.539Z,4.53
2023-05-19T03:03:33.790Z,4.32
2023-05-19T03:06:02.615Z,4.10
2023-05-19T03:08:32.045Z,4.45
2023-05-19T03:11:00.136Z,4.30
2023-05-19T03:13:28.761Z,3.75
2023-05-19T03:15:57.995Z,4.25
2023-05-19T03:18:26.371Z,4.43
2023-05-19T03:20:55.086Z,4.70
2023-05-19T03:23:23.411Z,3.55
2023-05-19T03:25:54.249Z,3.78
2023-05-19T03:28:23.478Z,3.60
2023-05-19T03:30:51.895Z,3.60
2023-05-19T03:33:20.409Z,4.60
2023-05-19T03:35:48.835Z,4.68
2023-05-19T03:38:16.918Z,4.50
2023-05-19T03:40:45.203Z,4.60
2023-05-19T03:43:16.174Z,4.90
2023-05-19T03:45:44.342Z,4.20
2023-05-19T03:48:12.629Z,4.22
2023-05-19T03:50:40.856Z,4.40
2023-05-19T03:53:08.904Z,3.80
2023-05-19T03:55:37.583Z,3.90
2023-05-19T03:58:05.655Z,3.70
2023-05-19T04:00:35.425Z,3.47
2023-05-19T04:03:03.763Z,3.90
2023-05-19T04:05:31.929Z,3.80
2023-05-19T04:08:00.135Z,3.70
2023-05-19T04:10:28.346Z,3.72
2023-05-19T04:12:57.021Z,4.20
2023-05-19T04:15:25.223Z,4.70
2023-05-19T04:17:54.763Z,4.28
2023-05-19T04:20:23.116Z,4.43
2023-05-19T04:22:51.229Z,3.85
2023-05-19T04:25:20.173Z,3.80
2023-05-19T04:27:48.939Z,3.97
2023-05-19T04:30:22.470Z,3.70
2023-05-19T04:32:51.212Z,3.85
2023-05-19T04:35:20.762Z,3.85
2023-05-19T04:37:48.851Z,3.58
2023-05-19T04:40:17.482Z,3.72
2023-05-19T04:42:46.098Z,4.50
2023-05-19T04:45:15.020Z,4.70
2023-05-19T04:47:43.325Z,5.15
2023-05-19T04:50:12.347Z,4.68
2023-05-19T04:52:41.888Z,4.93
2023-05-19T04:55:11.472Z,4.93
2023-05-19T04:57:40.052Z,5.15
2023-05-19T05:00:13.478Z,4.75
2023-05-19T05:02:42.967Z,4.95
2023-05-19T05:05:11.697Z,5.13
2023-05-19T05:07:41.298Z,5.32
2023-05-19T05:10:10.992Z,4.82
2023-05-19T05:12:39.762Z,4.47
2023-05-19T05:15:09.240Z,4.45
2023-05-19T05:17:37.850Z,4.38
2023-05-19T05:20:07.326Z,4.50
2023-05-19T05:22:36.212Z,3.97
2023-05-19T05:25:07.284Z,4.20
2023-05-19T05:27:36.003Z,3.70
2023-05-19T05:30:04.223Z,3.00
2023-05-19T05:32:32.536Z,3.10
2023-05-19T05:35:00.863Z,3.42
2023-05-19T05:37:29.079Z,3.25
2023-05-19T05:39:57.149Z,3.58
2023-05-19T05:42:28.939Z,3.47
2023-05-19T05:44:57.771Z,3.63
2023-05-19T05:47:26.602Z,3.75
2023-05-19T05:49:55.213Z,3.85
2023-05-19T05:52:27.772Z,3.60
2023-05-19T05:54:56.496Z,3.10
2023-05-19T05:57:27.138Z,3.25
2023-05-19T05:59:55.687Z,3.22
2023-05-19T06:02:23.955Z,3.08
2023-05-19T06:04:54.346Z,3.13
2023-05-19T06:07:22.890Z,3.25
2023-05-19T06:09:51.003Z,3.40
2023-05-19T06:12:19.283Z,3.95
2023-05-19T06:14:48.800Z,3.88
2023-05-19T06:17:16.939Z,3.42
2023-05-19T06:19:45.064Z,3.30
2023-05-19T06:22:13.124Z,3.83
2023-05-19T06:24:41.199Z,3.72
2023-05-19T06:27:09.293Z,3.70
2023-05-19T06:29:37.451Z,3.22
2023-05-19T06:32:07.133Z,3.75
2023-05-19T06:34:35.288Z,3.28
2023-05-19T06:37:03.505Z,3.17
2023-05-19T06:39:31.617Z,3.83
2023-05-19T06:41:59.832Z,3.50
2023-05-19T06:44:27.975Z,3.50
2023-05-19T06:46:56.133Z,3.65
2023-05-19T06:49:29.375Z,3.40
2023-05-19T06:51:57.491Z,3.85
2023-05-19T06:54:25.581Z,3.75
2023-05-19T06:56:53.599Z,3.70
2023-05-19T06:59:23.072Z,3.92
2023-05-19T07:01:51.217Z,3.47
2023-05-19T07:04:19.313Z,3.88
2023-05-19T07:06:50.314Z,3.65
2023-05-19T07:09:18.481Z,3.75
2023-05-19T07:11:46.917Z,3.50
2023-05-19T07:14:15.001Z,3.90
2023-05-19T07:16:43.167Z,4.03
2023-05-19T07:19:11.396Z,3.85
2023-05-19T07:21:39.573Z,4.15
2023-05-19T07:24:09.504Z,3.95
2023-05-19T07:26:37.658Z,4.00
2023-05-19T07:29:05.704Z,3.72
2023-05-19T07:31:34.214Z,3.72
2023-05-19T07:34:02.334Z,3.65
2023-05-19T07:36:30.505Z,3.40
2023-05-19T07:38:58.700Z,3.30
2023-05-19T07:41:28.337Z,3.40
2023-05-19T07:43:56.395Z,3.50
2023-05-19T07:46:24.523Z,3.58
2023-05-19T07:48:52.688Z,3.42
2023-05-19T07:51:21.008Z,3.38
2023-05-19T07:53:49.148Z,3.40
2023-05-19T07:56:17.259Z,3.42
2023-05-19T07:58:46.892Z,3.33
2023-05-19T08:01:15.079Z,3.58
2023-05-19T08:03:43.268Z,3.40
2023-05-19T08:06:11.385Z,3.70
2023-05-19T08:08:39.588Z,3.70
2023-05-19T08:11:07.891Z,3.30
2023-05-19T08:13:35.951Z,3.90
2023-05-19T08:16:05.589Z,3.70
2023-05-19T08:18:33.893Z,3.53
2023-05-19T08:21:02.269Z,2.90
2023-05-19T08:23:30.468Z,3.10
2023-05-19T08:25:58.665Z,3.08
2023-05-19T08:28:26.872Z,3.25
2023-05-19T08:30:55.134Z,2.90
2023-05-19T08:33:24.858Z,3.00
2023-05-19T08:35:53.132Z,3.03
2023-05-19T08:38:21.408Z,3.00
2023-05-19T08:40:49.657Z,3.13
2023-05-19T08:43:17.929Z,2.70
2023-05-19T08:45:48.364Z,2.95
2023-05-19T08:48:18.731Z,3.17
2023-05-19T08:50:56.630Z,3.17
2023-05-19T08:53:33.101Z,3.33
2023-05-19T08:56:10.276Z,3.20
2023-05-19T08:58:41.475Z,3.22
2023-05-19T09:01:11.002Z,3.42
2023-05-19T09:03:39.799Z,3.67
2023-05-19T09:06:09.731Z,3.60
2023-05-19T09:08:37.873Z,3.60
2023-05-19T09:11:06.135Z,3.70
2023-05-19T09:13:34.588Z,3.30
2023-05-19T09:16:03.824Z,3.42
2023-05-19T09:18:32.334Z,3.30
2023-05-19T09:21:02.820Z,3.15
2023-05-19T09:23:34.064Z,3.10
2023-05-19T09:26:07.283Z,2.63
2023-05-19T09:28:37.036Z,2.72
2023-05-19T09:31:06.688Z,2.72
2023-05-19T09:33:35.870Z,2.50
2023-05-19T09:36:06.156Z,2.30
2023-05-19T09:38:36.998Z,2.25
2023-05-19T09:41:06.868Z,2.30
2023-05-19T09:43:36.615Z,2.42
2023-05-19T09:46:05.959Z,2.30
2023-05-19T09:48:34.611Z,2.25
2023-05-19T09:51:03.272Z,2.55
2023-05-19T09:53:32.632Z,2.40
2023-05-19T09:56:03.921Z,2.45
2023-05-19T09:58:34.789Z,2.80
2023-05-19T10:01:03.415Z,2.60
2023-05-19T10:03:33.007Z,2.40
2023-05-19T10:06:02.357Z,2.40
2023-05-19T10:08:31.965Z,2.50
2023-05-19T10:11:02.008Z,2.42
2023-05-19T10:13:31.127Z,2.80
2023-05-19T10:16:00.630Z,3.03
2023-05-19T10:18:29.813Z,2.83
2023-05-19T10:20:59.131Z,2.75
2023-05-19T10:25:59.177Z,2.63
2023-05-19T10:28:38.507Z,2.50
2023-05-19T10:31:09.640Z,2.20
2023-05-19T10:33:53.515Z,2.40
2023-05-19T10:36:39.383Z,2.40
2023-05-19T10:39:13.314Z,2.80
2023-05-19T10:41:48.200Z,2.35
2023-05-19T10:44:28.444Z,2.45
2023-05-19T10:46:57.280Z,2.10
2023-05-19T10:49:26.071Z,2.55
2023-05-19T10:51:57.221Z,2.22
2023-05-19T10:54:43.786Z,2.33
2023-05-19T10:57:16.448Z,2.72
2023-05-19T10:59:46.286Z,2.40
2023-05-19T11:02:40.929Z,2.67
2023-05-19T11:05:10.805Z,2.20
2023-05-19T11:07:42.445Z,2.13
2023-05-19T11:10:11.435Z,2.00
2023-05-19T11:12:44.079Z,2.60
2023-05-19T11:15:16.594Z,2.20
2023-05-19T11:17:49.761Z,2.00
2023-05-19T11:20:27.787Z,2.20
2023-05-19T11:23:09.499Z,2.30
2023-05-19T11:25:48.207Z,2.10
2023-05-19T11:28:19.537Z,1.95
2023-05-19T11:30:51.974Z,2.13
2023-05-19T11:33:21.673Z,1.90
2023-05-19T11:35:52.357Z,2.50
2023-05-19T11:38:21.066Z,2.60
2023-05-19T11:40:50.257Z,1.95
2023-05-19T11:43:18.451Z,2.28
2023-05-19T11:45:47.156Z,2.20
2023-05-19T11:48:17.519Z,2.17
2023-05-19T11:50:46.906Z,2.30
2023-05-19T11:53:15.544Z,2.10
2023-05-19T11:55:46.042Z,1.88
2023-05-19T11:58:14.421Z,2.47
2023-05-19T12:00:46.243Z,1.65
2023-05-19T12:03:14.791Z,1.83
2023-05-19T12:05:47.357Z,1.80
2023-05-19T12:08:17.776Z,1.90
2023-05-19T12:10:49.786Z,1.75
2023-05-19T12:13:18.309Z,1.58
2023-05-19T12:15:46.416Z,1.60
2023-05-19T12:18:14.586Z,1.90
2023-05-19T12:20:44.426Z,2.10
2023-05-19T12:23:13.177Z,1.98
2023-05-19T12:25:41.420Z,1.90
2023-05-19T12:28:09.470Z,1.92
2023-05-19T12:30:37.781Z,1.92
2023-05-19T12:33:06.545Z,2.17
2023-05-19T12:35:34.803Z,2.45
2023-05-19T12:38:08.264Z,2.80
2023-05-19T12:40:37.694Z,2.38
2023-05-19T12:43:07.016Z,2.58
2023-05-19T12:45:36.331Z,2.47
2023-05-19T12:48:06.751Z,2.92
2023-05-19T12:50:35.490Z,2.47
2023-05-19T12:53:03.856Z,2.88
2023-05-19T12:55:39.632Z,3.00
2023-05-19T12:58:09.083Z,2.92
2023-05-19T13:00:41.985Z,3.00
2023-05-19T13:03:16.217Z,3.15
2023-05-19T13:05:46.569Z,3.00
2023-05-19T13:08:16.614Z,3.42
2023-05-19T13:10:49.307Z,3.30
2023-05-19T13:13:18.182Z,3.65
2023-05-19T13:15:49.082Z,3.45
2023-05-19T13:18:17.632Z,3.33
2023-05-19T13:20:49.230Z,3.70
2023-05-19T13:23:17.744Z,3.55
2023-05-19T13:25:47.582Z,3.55
2023-05-19T13:28:15.953Z,3.65
2023-05-19T13:30:45.646Z,4.10
2023-05-19T13:33:13.859Z,4.75
2023-05-19T13:35:42.098Z,3.40
2023-05-19T13:38:11.148Z,3.63
2023-05-19T13:40:39.777Z,4.30
2023-05-19T13:43:09.926Z,3.80
2023-05-19T13:45:38.718Z,3.97
2023-05-19T13:48:08.216Z,3.95
2023-05-19T13:50:36.653Z,3.67
2023-05-19T13:53:05.302Z,3.50
2023-05-19T13:55:33.803Z,4.30
2023-05-19T13:58:02.038Z,3.90
2023-05-19T14:00:32.739Z,3.58
2023-05-19T14:03:01.457Z,3.80
2023-05-19T14:05:31.295Z,3.67
2023-05-19T14:08:01.122Z,3.92
2023-05-19T14:10:29.701Z,3.80
2023-05-19T14:15:34.621Z,4.35
2023-05-19T14:18:03.633Z,3.55
2023-05-19T14:20:33.535Z,3.90
2023-05-19T14:23:01.775Z,3.53
2023-05-19T14:25:29.916Z,4.18
2023-05-19T14:27:58.098Z,3.70
2023-05-19T14:30:26.191Z,3.83
2023-05-19T14:32:55.844Z,3.45
2023-05-19T14:35:24.478Z,3.60
2023-05-19T14:37:52.764Z,3.92
2023-05-19T14:40:21.079Z,4.20
2023-05-19T14:42:49.270Z,3.67
2023-05-19T14:45:17.509Z,3.10
2023-05-19T14:47:46.692Z,3.90
2023-05-19T14:50:17.214Z,3.50
2023-05-19T14:52:45.325Z,4.00
2023-05-19T14:55:13.456Z,3.97
2023-05-19T14:57:41.576Z,3.80
2023-05-19T15:00:10.540Z,3.78
2023-05-19T15:02:38.884Z,3.60
2023-05-19T15:05:07.757Z,4.00
2023-05-19T15:07:37.496Z,3.80
2023-05-19T15:10:06.575Z,3.75
2023-05-19T15:12:34.762Z,4.20
2023-05-19T15:15:02.948Z,4.00
2023-05-19T15:17:31.284Z,4.18
2023-05-19T15:19:59.610Z,3.80
2023-05-19T15:22:27.922Z,4.35
2023-05-19T15:24:57.583Z,3.63
2023-05-19T15:27:25.933Z,3.95
2023-05-19T15:29:54.073Z,3.80
2023-05-19T15:32:22.210Z,4.05
2023-05-19T15:34:50.447Z,3.50
2023-05-19T15:37:18.545Z,3.78
2023-05-19T15:39:46.641Z,3.15
2023-05-19T15:42:16.119Z,3.22
2023-05-19T15:44:46.018Z,3.60
2023-05-19T15:47:14.135Z,5.75
2023-05-19T15:49:42.234Z,4.88
2023-05-19T15:52:10.531Z,3.72
2023-05-19T15:54:38.658Z,4.05
2023-05-19T15:57:07.194Z,3.33
2023-05-19T15:59:36.769Z,3.78
2023-05-19T16:02:05.170Z,4.03
2023-05-19T16:04:33.405Z,4.38
2023-05-19T16:07:01.470Z,3.72
2023-05-19T16:09:29.684Z,3.92
2023-05-19T16:11:57.788Z,3.75
2023-05-19T16:14:29.338Z,4.00
2023-05-19T16:17:01.246Z,3.53
2023-05-19T16:19:29.460Z,3.67
2023-05-19T16:21:57.649Z,3.70
2023-05-19T16:24:25.920Z,4.13
2023-05-19T16:26:54.301Z,3.65
2023-05-19T16:29:22.419Z,4.15
2023-05-19T16:31:50.617Z,4.40
2023-05-19T16:34:20.287Z,4.47
2023-05-19T16:36:48.346Z,4.10
2023-05-19T16:39:16.591Z,4.13
2023-05-19T16:41:44.732Z,4.40
2023-05-19T16:44:14.719Z,4.13
2023-05-19T16:46:42.983Z,4.07
2023-05-19T16:49:11.367Z,4.28
2023-05-19T16:51:40.891Z,3.45
2023-05-19T16:54:09.052Z,4.20
2023-05-19T16:56:37.147Z,4.20
2023-05-19T16:59:05.320Z,4.30
2023-05-19T17:01:33.543Z,3.22
2023-05-19T17:04:01.722Z,4.25
2023-05-19T17:06:29.964Z,3.97
2023-05-19T17:08:59.538Z,4.80
2023-05-19T17:11:28.391Z,4.60
2023-05-19T17:13:56.551Z,4.72
2023-05-19T17:16:24.930Z,4.30
2023-05-19T17:18:53.233Z,4.55
2023-05-19T17:21:21.684Z,4.85
2023-05-19T17:23:49.820Z,4.57
2023-05-19T17:26:19.443Z,4.47
2023-05-19T17:28:47.568Z,4.55
2023-05-19T17:31:16.304Z,5.00
2023-05-19T17:33:44.440Z,4.20
2023-05-19T17:36:12.522Z,4.68
2023-05-19T17:38:42.097Z,4.35
2023-05-19T17:41:11.038Z,4.32
2023-05-19T17:43:41.820Z,4.20
2023-05-19T17:46:10.313Z,4.32
2023-05-19T17:48:39.724Z,3.80
2023-05-19T17:51:08.110Z,3.83
2023-05-19T17:53:37.026Z,3.70
2023-05-19T17:56:07.430Z,3.83
2023-05-19T17:58:36.228Z,3.85
2023-05-19T18:01:06.272Z,3.40
2023-05-19T18:03:35.020Z,3.58
2023-05-19T18:06:03.831Z,3.20
2023-05-19T18:08:33.669Z,3.92
2023-05-19T18:11:01.845Z,3.80
2023-05-19T18:13:29.964Z,3.92
2023-05-19T18:15:59.858Z,4.25
2023-05-19T18:18:29.593Z,4.10
2023-05-19T18:20:57.712Z,3.30
2023-05-19T18:23:25.807Z,3.00
2023-05-19T18:25:53.949Z,3.28
2023-05-19T18:28:22.112Z,4.00
2023-05-19T18:30:59.927Z,4.93
2023-05-19T18:33:31.080Z,4.22
2023-05-19T18:35:59.990Z,4.15
2023-05-19T18:38:28.117Z,3.85
2023-05-19T18:40:56.840Z,4.45
2023-05-19T18:43:25.085Z,4.40
2023-05-19T18:45:53.279Z,4.25
2023-05-19T18:48:22.539Z,4.88
2023-05-19T18:50:52.065Z,4.70
2023-05-19T18:53:20.109Z,5.00
2023-05-19T18:55:48.153Z,4.90
2023-05-19T18:58:16.314Z,4.68
2023-05-19T19:00:44.522Z,5.15
2023-05-19T19:03:12.755Z,4.90
2023-05-19T19:05:40.940Z,4.63
2023-05-19T19:08:10.514Z,5.15
2023-05-19T19:10:40.608Z,5.22
2023-05-19T19:13:08.848Z,5.20
2023-05-19T19:15:37.744Z,5.20
2023-05-19T19:18:07.459Z,5.07
2023-05-19T19:20:36.390Z,5.68
2023-05-19T19:23:06.733Z,6.72
2023-05-19T19:25:36.378Z,6.95
2023-05-19T19:28:04.612Z,5.88
2023-05-19T19:30:33.004Z,4.88
2023-05-19T19:33:01.389Z,5.18
2023-05-19T19:35:29.567Z,5.05
2023-05-19T19:37:58.611Z,5.28
2023-05-19T19:40:26.790Z,5.47
2023-05-19T19:42:57.046Z,5.25
2023-05-19T19:45:25.315Z,5.45
2023-05-19T19:47:53.664Z,4.80
2023-05-19T19:50:23.620Z,6.05
2023-05-19T19:52:51.856Z,5.40
2023-05-19T19:55:19.928Z,5.88
2023-05-19T19:57:49.569Z,5.43
2023-05-19T20:00:20.074Z,5.28
2023-05-19T20:03:03.835Z,5.72
2023-05-19T20:05:34.225Z,6.38
2023-05-19T20:08:02.340Z,5.57
2023-05-19T20:10:30.526Z,6.00
2023-05-19T20:12:59.667Z,5.70
2023-05-19T20:15:29.228Z,6.20
2023-05-19T20:17:57.362Z,5.60
2023-05-19T20:20:26.070Z,6.05
2023-05-19T20:22:54.263Z,5.88
2023-05-19T20:25:22.390Z,5.03
2023-05-19T20:27:50.502Z,5.35
2023-05-19T20:30:18.753Z,5.93
2023-05-19T20:32:48.362Z,5.50
2023-05-19T20:35:16.642Z,5.88
2023-05-19T20:37:44.807Z,5.57
2023-05-19T20:40:13.794Z,4.57
2023-05-19T20:42:42.233Z,4.68
2023-05-19T20:45:10.814Z,4.43
2023-05-19T20:47:39.204Z,5.05
2023-05-19T20:50:10.009Z,4.57
2023-05-19T20:52:38.175Z,4.40
2023-05-19T20:55:06.531Z,4.78
2023-05-19T20:57:34.962Z,4.22
2023-05-19T21:00:03.659Z,4.75
2023-05-19T21:02:31.730Z,3.67
2023-05-19T21:05:01.245Z,2.70
2023-05-19T21:07:30.858Z,3.15
2023-05-19T21:09:59.031Z,3.40
2023-05-19T21:12:33.748Z,3.03
2023-05-19T21:15:02.215Z,3.03
2023-05-19T21:17:30.632Z,3.35
2023-05-19T21:19:59.824Z,2.67
2023-05-19T21:22:28.688Z,2.53
2023-05-19T21:24:58.636Z,3.08
2023-05-19T21:27:26.800Z,5.20
2023-05-19T21:29:55.155Z,5.80
2023-05-19T21:32:23.304Z,6.75
2023-05-19T21:34:51.408Z,6.50
2023-05-19T21:37:20.431Z,6.32
2023-05-19T21:39:48.896Z,6.43
2023-05-19T21:42:18.540Z,5.85
2023-05-19T21:44:46.703Z,5.75
2023-05-19T21:47:18.024Z,4.60
2023-05-19T21:49:46.219Z,4.50
2023-05-19T21:52:14.324Z,4.28
2023-05-19T21:54:42.463Z,4.32
2023-05-19T21:57:11.267Z,4.20
2023-05-19T21:59:40.914Z,4.15
2023-05-19T22:02:09.127Z,4.90
2023-05-19T22:04:38.616Z,4.32
2023-05-19T22:07:07.684Z,4.50
2023-05-19T22:09:36.092Z,4.28
2023-05-19T22:12:04.185Z,2.60
2023-05-19T22:14:32.354Z,2.13
2023-05-19T22:17:01.847Z,1.85
2023-05-19T22:19:30.105Z,1.88
2023-05-19T22:22:09.703Z,1.13
2023-05-19T22:24:41.728Z,1.25
2023-05-19T22:27:10.081Z,1.60
2023-05-19T22:29:38.750Z,1.30
2023-05-19T22:32:12.226Z,1.77
2023-05-19T22:34:40.671Z,2.40
2023-05-19T22:37:08.748Z,2.60
2023-05-19T22:39:37.063Z,2.17
2023-05-19T22:42:05.482Z,1.60
2023-05-19T22:44:33.552Z,1.55
2023-05-19T22:47:01.613Z,2.70
2023-05-19T22:49:31.116Z,3.40
2023-05-19T22:51:59.237Z,3.42
2023-05-19T22:54:27.241Z,3.08
2023-05-19T22:56:55.914Z,3.15
2023-05-19T22:59:24.055Z,3.45
2023-05-19T23:01:52.291Z,2.85
2023-05-19T23:04:20.354Z,1.40
2023-05-19T23:06:50.606Z,1.80
2023-05-19T23:09:18.833Z,2.20
2023-05-19T23:11:47.247Z,2.60
2023-05-19T23:14:15.498Z,2.70
2023-05-19T23:16:43.679Z,3.70
2023-05-19T23:19:11.954Z,3.63
2023-05-19T23:21:40.126Z,4.20
2023-05-19T23:24:09.621Z,5.55
2023-05-19T23:26:37.655Z,4.70
2023-05-19T23:29:05.661Z,2.53
2023-05-19T23:31:34.972Z,3.40
2023-05-19T23:34:04.551Z,2.88
2023-05-19T23:36:32.741Z,3.33
2023-05-19T23:39:01.384Z,3.03
2023-05-19T23:41:31.559Z,3.20
2023-05-19T23:43:59.658Z,3.75
2023-05-19T23:46:27.966Z,3.97
2023-05-19T23:48:56.117Z,3.40
2023-05-19T23:51:24.265Z,3.58
2023-05-19T23:53:52.321Z,3.22
2023-05-19T23:56:20.447Z,1.65
2023-05-19T23:58:50.078Z,1.70
